MET'MAP v2.0
soon released !

Expected late october,
this new version will be
more efficient, smarter,
and hosted on a brand new
server x3 powerfull...
...and still free !


Not compatible ?
Try the mobile version !

LOG IN : | Subscribe | Disclaimer | Who is Orbifly ? |
ICAO code :

TAF - EGDL RAF Lyneham - 14 Nov 2019 09:44 UTC
Data Sources :     NOAA   


- Airport Elevation : 513 ft
- IATA code : LYE
- No reported NOTAMs.


EGDL - RAF Lyneham

Latest METAR recorded : 2013/06/21 07:50 EGDL 210750Z AUTO 25008KT //// // BKN002/// BKN014/// 14/14 Q1010
Expired Forecast.

Source NOAA
ATIS : +44 1249 897 308


MET'MAP, your aeronautical weather chart ! - Copyright ORBIFLY December 2007

Programming & Development : Alexandra Zaïnal
Co-Developer : Marc-Olivier Méhu
Technical & hardware support : Manuel Goepfert
Concept & Financing : Baudouin d'Aumeries